Time;durP1;ratioP1;P1;durP2;ratioP2;P2;SDS_P1;SDS_P2;PMS_P1;PMS_P2;Temp;Humidity;BMP_temperature;BMP_pressure;BME280_temperature;BME280_humidity;BME280_pressure;Samples;Min_cycle;Max_cycle;Signal;HPM_P1;HPM_P2
2021/07/28 00:10:21;;;;;;;;;;;15.90;99.90;;;;;;5113490;27;19916;-82
2021/07/28 00:12:47;;;;;;;;;;;16.10;99.90;;;;;;5112946;28;20267;-82
2021/07/28 00:15:14;;;;;;;;;;;16.10;99.90;;;;;;5112750;28;19924;-81
2021/07/28 00:17:45;;;;;;;;;;;16.10;99.90;;;;;;5112557;28;19934;-82
2021/07/28 00:20:16;;;;;;;;;;;16.10;99.90;;;;;;5112658;28;19934;-81
2021/07/28 00:25:29;;;;;;;;;;;16.20;99.90;;;;;;5112440;28;19931;-81
2021/07/28 00:27:56;;;;;;;;;;;16.10;99.90;;;;;;5111715;28;19924;-81
2021/07/28 00:30:22;;;;;;;;;;;16.10;99.90;;;;;;5112623;28;19924;-81
2021/07/28 00:32:49;;;;;;;;;;;16.10;99.90;;;;;;5112427;28;20355;-81
2021/07/28 00:35:16;;;;;;;;;;;16.10;99.90;;;;;;5112535;28;20301;-81
2021/07/28 00:37:45;;;;;;;;;;;16.10;99.90;;;;;;5112225;28;20375;-81
2021/07/28 00:40:12;;;;;;;;;;;16.10;99.90;;;;;;5112487;28;19927;-81
2021/07/28 00:42:40;;;;;;;;;;;16.10;99.90;;;;;;5112368;28;19924;-81
2021/07/28 00:45:08;;;;;;;;;;;16.00;99.90;;;;;;5112179;28;19938;-82
2021/07/28 00:47:35;;;;;;;;;;;16.00;99.90;;;;;;5112441;28;19935;-82
2021/07/28 00:50:01;;;;;;;;;;;16.00;99.90;;;;;;5112132;28;19928;-82
2021/07/28 00:52:29;;;;;;;;;;;16.00;99.90;;;;;;5112120;28;19930;-82
2021/07/28 00:54:56;;;;;;;;;;;16.00;99.90;;;;;;5111968;28;20269;-81
2021/07/28 00:57:23;;;;;;;;;;;16.00;99.90;;;;;;5111848;28;20363;-81
2021/07/28 00:59:51;;;;;;;;;;;15.90;99.90;;;;;;5111846;28;19924;-82
2021/07/28 01:02:18;;;;;;;;;;;16.00;99.90;;;;;;5112114;28;19932;-82
2021/07/28 01:04:45;;;;;;;;;;;16.00;99.90;;;;;;5112025;28;19928;-82
2021/07/28 01:07:11;;;;;;;;;;;15.90;99.90;;;;;;5111961;28;19938;-81
2021/07/28 01:09:38;;;;;;;;;;;15.90;99.90;;;;;;5107237;28;19924;-82
2021/07/28 01:12:06;;;;;;;;;;;15.90;99.90;;;;;;5098008;28;19924;-81
2021/07/28 01:14:32;;;;;;;;;;;15.90;99.90;;;;;;5098292;28;19924;-82
2021/07/28 01:17:01;;;;;;;;;;;15.90;99.90;;;;;;5098339;28;19924;-82
2021/07/28 01:19:29;;;;;;;;;;;15.90;99.90;;;;;;5097941;28;20349;-81
2021/07/28 01:21:56;;;;;;;;;;;15.90;99.90;;;;;;5098200;28;19935;-81
2021/07/28 01:24:24;;;;;;;;;;;15.90;99.90;;;;;;5098132;28;19935;-84
2021/07/28 01:26:51;;;;;;;;;;;15.90;99.90;;;;;;5097766;28;20371;-84
2021/07/28 01:29:18;;;;;;;;;;;15.90;99.90;;;;;;5097818;28;19924;-82
2021/07/28 01:31:44;;;;;;;;;;;15.90;99.90;;;;;;5097700;28;20029;-82
2021/07/28 01:34:11;;;;;;;;;;;15.90;99.90;;;;;;5097659;28;19928;-83
2021/07/28 01:36:39;;;;;;;;;;;15.90;99.90;;;;;;5097840;28;19930;-84
2021/07/28 01:39:07;;;;;;;;;;;15.90;99.90;;;;;;5097693;28;19924;-84
2021/07/28 01:41:36;;;;;;;;;;;15.90;99.90;;;;;;5097442;28;19924;-84
2021/07/28 01:44:03;;;;;;;;;;;15.90;99.90;;;;;;5097732;28;19924;-82
2021/07/28 01:46:29;;;;;;;;;;;15.90;99.90;;;;;;5097679;28;19939;-82
2021/07/28 01:48:56;;;;;;;;;;;15.90;99.90;;;;;;5097446;28;19924;-81
2021/07/28 01:51:23;;;;;;;;;;;15.90;99.90;;;;;;5097448;28;19924;-81
2021/07/28 01:53:50;;;;;;;;;;;15.90;99.90;;;;;;5097452;28;19924;-83
2021/07/28 01:56:17;;;;;;;;;;;15.90;99.90;;;;;;5097695;28;20245;-83
2021/07/28 01:58:53;;;;;;;;;;;16.00;99.90;;;;;;5097295;28;19924;-81
2021/07/28 02:01:20;;;;;;;;;;;15.90;99.90;;;;;;5097413;28;19924;-81
2021/07/28 02:03:47;;;;;;;;;;;15.90;99.90;;;;;;5097179;28;19924;-83
2021/07/28 02:06:14;;;;;;;;;;;15.90;99.90;;;;;;5097075;28;19950;-83
2021/07/28 02:08:41;;;;;;;;;;;15.90;99.90;;;;;;5096865;28;20346;-83
2021/07/28 02:11:08;;;;;;;;;;;15.90;99.90;;;;;;5096960;28;19924;-81
2021/07/28 02:13:34;;;;;;;;;;;16.00;99.90;;;;;;5096860;28;19930;-81
2021/07/28 02:16:03;;;;;;;;;;;15.90;99.90;;;;;;5097093;28;19924;-82
2021/07/28 02:18:29;;;;;;;;;;;16.00;99.90;;;;;;5096856;28;19946;-83
2021/07/28 02:20:57;;;;;;;;;;;16.00;99.90;;;;;;5096367;28;20264;-80
2021/07/28 02:23:24;;;;;;;;;;;16.00;99.90;;;;;;5096440;28;19970;-83
2021/07/28 02:25:51;;;;;;;;;;;16.00;99.90;;;;;;5096645;28;20257;-83
2021/07/28 02:28:18;;;;;;;;;;;16.00;99.90;;;;;;5096664;28;19924;-83
2021/07/28 02:30:44;;;;;;;;;;;15.90;99.90;;;;;;5096625;28;19928;-83
2021/07/28 02:33:13;;;;;;;;;;;16.00;99.90;;;;;;5096420;28;19931;-83
2021/07/28 02:35:39;;;;;;;;;;;16.00;99.90;;;;;;5096434;28;19934;-83
2021/07/28 02:38:06;;;;;;;;;;;15.90;99.90;;;;;;5096681;28;19924;-83
2021/07/28 02:40:33;;;;;;;;;;;15.90;99.90;;;;;;5096358;28;20268;-83
2021/07/28 02:43:00;;;;;;;;;;;15.90;99.90;;;;;;5096483;28;19963;-83
2021/07/28 02:45:27;;;;;;;;;;;15.90;99.90;;;;;;5096332;28;19924;-83
2021/07/28 02:47:54;;;;;;;;;;;15.90;99.90;;;;;;5096189;28;19934;-83
2021/07/28 02:50:22;;;;;;;;;;;15.90;99.90;;;;;;5096091;28;19924;-83
2021/07/28 02:52:49;;;;;;;;;;;15.90;99.90;;;;;;5096093;28;19924;-83
2021/07/28 02:55:16;;;;;;;;;;;15.90;99.90;;;;;;5096250;28;19924;-83
2021/07/28 02:57:43;;;;;;;;;;;15.80;99.90;;;;;;5096076;28;19928;-83
2021/07/28 03:00:10;;;;;;;;;;;15.80;99.90;;;;;;5095930;28;19935;-83
2021/07/28 03:02:37;;;;;;;;;;;15.70;99.90;;;;;;5096017;28;20264;-83
2021/07/28 03:05:04;;;;;;;;;;;15.70;99.90;;;;;;5095866;28;19924;-83
2021/07/28 03:07:33;;;;;;;;;;;15.60;99.90;;;;;;5095843;28;20261;-83
2021/07/28 03:10:00;;;;;;;;;;;15.60;99.90;;;;;;5095715;28;19924;-83
2021/07/28 03:12:27;;;;;;;;;;;15.60;99.90;;;;;;5095962;28;19924;-83
2021/07/28 03:14:54;;;;;;;;;;;15.60;99.90;;;;;;5095879;28;19946;-83
2021/07/28 03:17:21;;;;;;;;;;;15.50;99.90;;;;;;5095716;28;19924;-83
2021/07/28 03:19:48;;;;;;;;;;;15.50;99.90;;;;;;5095582;28;19924;-83
2021/07/28 03:22:14;;;;;;;;;;;15.50;99.90;;;;;;5095638;28;19924;-83
2021/07/28 03:24:43;;;;;;;;;;;15.40;99.90;;;;;;5095847;28;19924;-83
2021/07/28 03:27:09;;;;;;;;;;;15.40;99.90;;;;;;5095587;28;19924;-84
2021/07/28 03:29:36;;;;;;;;;;;15.40;99.90;;;;;;5095585;28;19931;-83
2021/07/28 03:32:03;;;;;;;;;;;15.40;99.90;;;;;;5095469;28;19928;-84
2021/07/28 03:34:30;;;;;;;;;;;15.40;99.90;;;;;;5095532;28;20268;-83
2021/07/28 03:36:57;;;;;;;;;;;15.40;99.90;;;;;;5095401;28;20397;-83
2021/07/28 03:39:24;;;;;;;;;;;15.40;99.90;;;;;;5095512;28;19928;-83
2021/07/28 03:41:52;;;;;;;;;;;15.40;99.90;;;;;;5095317;28;19924;-83
2021/07/28 03:44:19;;;;;;;;;;;15.30;99.90;;;;;;5095367;28;19924;-83
2021/07/28 03:46:46;;;;;;;;;;;15.30;99.90;;;;;;5095494;28;20238;-83
2021/07/28 03:49:12;;;;;;;;;;;15.30;99.90;;;;;;5095299;28;20342;-83
2021/07/28 03:51:39;;;;;;;;;;;15.30;99.90;;;;;;5095284;28;19924;-82
2021/07/28 03:54:06;;;;;;;;;;;15.30;99.90;;;;;;5095505;28;19924;-83
2021/07/28 03:56:33;;;;;;;;;;;15.30;99.90;;;;;;5095354;28;19928;-82
2021/07/28 03:59:01;;;;;;;;;;;15.30;99.90;;;;;;5095304;28;19924;-83
2021/07/28 04:01:28;;;;;;;;;;;15.30;99.90;;;;;;5095150;28;19924;-83
2021/07/28 04:03:55;;;;;;;;;;;15.20;99.90;;;;;;5095387;28;19974;-82
2021/07/28 04:06:22;;;;;;;;;;;15.20;99.90;;;;;;5095415;28;20252;-82
2021/07/28 04:08:49;;;;;;;;;;;15.30;99.90;;;;;;5094906;28;20329;-82
2021/07/28 04:11:15;;;;;;;;;;;15.30;99.90;;;;;;5095186;28;20001;-83
2021/07/28 04:13:42;;;;;;;;;;;15.20;99.90;;;;;;5095085;28;19930;-82
2021/07/28 04:16:11;;;;;;;;;;;15.20;99.90;;;;;;5094979;28;19932;-82
2021/07/28 04:18:37;;;;;;;;;;;15.20;99.90;;;;;;5095059;28;19924;-82
2021/07/28 04:21:04;;;;;;;;;;;15.20;99.90;;;;;;5095007;28;20051;-82
2021/07/28 04:23:31;;;;;;;;;;;15.20;99.90;;;;;;5095123;28;19925;-82
2021/07/28 04:25:58;;;;;;;;;;;15.20;99.90;;;;;;5094998;28;19946;-82
2021/07/28 04:28:25;;;;;;;;;;;15.10;99.90;;;;;;5094906;28;19928;-82
2021/07/28 04:30:52;;;;;;;;;;;15.10;99.90;;;;;;5094931;28;19924;-81
2021/07/28 04:33:21;;;;;;;;;;;15.10;99.90;;;;;;5094835;28;19935;-82
2021/07/28 04:35:47;;;;;;;;;;;15.10;99.90;;;;;;5095067;28;20353;-82
2021/07/28 04:38:14;;;;;;;;;;;15.00;99.90;;;;;;5094868;28;19930;-82
2021/07/28 04:40:41;;;;;;;;;;;15.00;99.90;;;;;;5094920;28;19931;-81
2021/07/28 04:43:08;;;;;;;;;;;15.00;99.90;;;;;;5094797;28;19931;-82
2021/07/28 04:45:35;;;;;;;;;;;15.00;99.90;;;;;;5096683;28;19924;-82
2021/07/28 04:48:02;;;;;;;;;;;15.00;99.90;;;;;;5098635;28;19924;-81
2021/07/28 04:50:30;;;;;;;;;;;15.00;99.90;;;;;;5098623;28;19935;-82
2021/07/28 04:52:57;;;;;;;;;;;15.00;99.90;;;;;;5098561;28;20375;-75
2021/07/28 04:55:24;;;;;;;;;;;15.00;99.90;;;;;;5098491;28;19934;-80
2021/07/28 04:57:50;;;;;;;;;;;15.00;99.90;;;;;;5098422;28;19932;-80
2021/07/28 05:00:17;;;;;;;;;;;14.90;99.90;;;;;;5098303;28;19930;-81
2021/07/28 05:02:44;;;;;;;;;;;15.00;99.90;;;;;;5098470;28;19924;-80
2021/07/28 05:05:11;;;;;;;;;;;15.00;99.90;;;;;;5098407;28;19946;-80
2021/07/28 05:07:39;;;;;;;;;;;15.00;99.90;;;;;;5098294;28;19924;-81
2021/07/28 05:10:07;;;;;;;;;;;15.00;99.90;;;;;;5098252;28;19924;-81
2021/07/28 05:12:33;;;;;;;;;;;15.00;99.90;;;;;;5098054;28;19924;-82
2021/07/28 05:15:00;;;;;;;;;;;15.00;99.90;;;;;;5098100;28;20014;-80
2021/07/28 05:17:27;;;;;;;;;;;15.00;99.90;;;;;;5098025;28;19924;-81
2021/07/28 05:19:54;;;;;;;;;;;15.10;99.90;;;;;;5097898;28;19928;-80
2021/07/28 05:22:21;;;;;;;;;;;15.10;99.90;;;;;;5097898;28;19924;-81
2021/07/28 05:24:49;;;;;;;;;;;15.20;99.90;;;;;;5097854;28;19934;-81
2021/07/28 05:27:17;;;;;;;;;;;15.20;99.90;;;;;;5098046;28;19932;-81
2021/07/28 05:29:44;;;;;;;;;;;15.20;99.90;;;;;;5097770;28;19932;-81
2021/07/28 05:32:11;;;;;;;;;;;15.20;99.90;;;;;;5098046;28;19931;-78
2021/07/28 05:34:38;;;;;;;;;;;15.20;99.90;;;;;;5097763;28;19974;-78
2021/07/28 05:37:05;;;;;;;;;;;15.30;99.90;;;;;;5097812;28;19950;-78
2021/07/28 05:39:32;;;;;;;;;;;15.30;99.90;;;;;;5097463;28;19942;-78
2021/07/28 05:42:00;;;;;;;;;;;15.30;99.90;;;;;;5097810;28;20234;-78
2021/07/28 05:44:28;;;;;;;;;;;15.40;99.90;;;;;;5097550;28;20010;-78
2021/07/28 05:46:55;;;;;;;;;;;15.30;99.90;;;;;;5097561;28;20345;-77
2021/07/28 05:49:22;;;;;;;;;;;15.30;99.90;;;;;;5097457;28;20256;-79
2021/07/28 05:51:49;;;;;;;;;;;15.30;99.90;;;;;;5097319;28;19923;-78
2021/07/28 05:54:16;;;;;;;;;;;15.30;99.90;;;;;;5097309;28;19928;-77
2021/07/28 05:56:43;;;;;;;;;;;15.30;99.90;;;;;;5097496;28;19934;-78
2021/07/28 05:59:11;;;;;;;;;;;15.30;99.90;;;;;;5097295;28;19924;-78
2021/07/28 06:01:38;;;;;;;;;;;15.30;99.90;;;;;;5097247;28;19924;-78
2021/07/28 06:04:05;;;;;;;;;;;15.30;99.90;;;;;;5097388;28;20242;-79
2021/07/28 06:06:32;;;;;;;;;;;15.30;99.90;;;;;;5097422;28;19985;-78
2021/07/28 06:08:58;;;;;;;;;;;15.40;99.90;;;;;;5096911;28;20269;-78
2021/07/28 06:11:25;;;;;;;;;;;15.40;99.90;;;;;;5096928;28;20261;-78
2021/07/28 06:13:52;;;;;;;;;;;15.50;99.90;;;;;;5096979;28;19938;-78
2021/07/28 06:16:20;;;;;;;;;;;15.50;99.90;;;;;;5096923;28;19924;-78
2021/07/28 06:18:47;;;;;;;;;;;15.50;99.90;;;;;;5096651;28;19934;-78
2021/07/28 06:21:14;;;;;;;;;;;15.60;99.90;;;;;;5096795;28;19924;-79
2021/07/28 06:23:41;;;;;;;;;;;15.50;99.90;;;;;;5096932;28;19924;-79
2021/07/28 06:26:08;;;;;;;;;;;15.50;99.90;;;;;;5096952;28;19924;-79
2021/07/28 06:28:35;;;;;;;;;;;15.60;99.90;;;;;;5096643;28;19932;-79
2021/07/28 06:31:02;;;;;;;;;;;15.60;99.90;;;;;;5096735;28;19924;-78
2021/07/28 06:33:30;;;;;;;;;;;15.60;99.90;;;;;;5096685;28;19924;-79
2021/07/28 06:35:57;;;;;;;;;;;15.70;99.90;;;;;;5096613;28;20028;-79
2021/07/28 06:38:24;;;;;;;;;;;15.80;99.90;;;;;;5096625;28;19928;-78
2021/07/28 06:40:51;;;;;;;;;;;15.90;99.90;;;;;;5096456;28;19934;-79
2021/07/28 06:43:18;;;;;;;;;;;16.00;99.90;;;;;;5096476;28;19935;-79
2021/07/28 06:45:44;;;;;;;;;;;16.10;99.90;;;;;;5096418;28;19928;-78
2021/07/28 06:48:11;;;;;;;;;;;16.10;99.90;;;;;;5096566;28;19924;-79
2021/07/28 06:50:39;;;;;;;;;;;16.20;99.90;;;;;;5096383;28;20349;-78
2021/07/28 06:53:06;;;;;;;;;;;16.20;99.90;;;;;;5096392;28;19934;-79
2021/07/28 06:55:33;;;;;;;;;;;16.10;99.90;;;;;;5096506;28;19924;-78
2021/07/28 06:58:00;;;;;;;;;;;16.10;99.90;;;;;;5096303;28;19924;-79
2021/07/28 07:00:27;;;;;;;;;;;16.00;99.90;;;;;;5096000;28;20249;-78
2021/07/28 07:02:58;;;;;;;;;;;16.00;99.90;;;;;;5096040;28;19934;-77
2021/07/28 07:05:25;;;;;;;;;;;16.00;99.90;;;;;;5096024;28;19950;-78
2021/07/28 07:07:53;;;;;;;;;;;16.00;99.90;;;;;;5095170;28;19924;-78
2021/07/28 07:10:20;;;;;;;;;;;16.00;99.90;;;;;;5096142;28;20023;-78
2021/07/28 07:12:47;;;;;;;;;;;15.90;99.90;;;;;;5095946;28;19928;-78
2021/07/28 07:15:14;;;;;;;;;;;16.00;99.90;;;;;;5095879;28;20272;-77
2021/07/28 07:17:40;;;;;;;;;;;16.00;99.90;;;;;;5095689;28;19997;-79
2021/07/28 07:20:08;;;;;;;;;;;16.00;99.90;;;;;;5095490;28;19924;-79
2021/07/28 07:22:35;;;;;;;;;;;16.00;99.90;;;;;;5095705;28;19930;-78
2021/07/28 07:25:03;;;;;;;;;;;16.00;99.90;;;;;;5095935;28;19950;-78
2021/07/28 07:27:30;;;;;;;;;;;15.90;99.90;;;;;;5095646;28;20348;-77
2021/07/28 07:29:57;;;;;;;;;;;15.90;99.90;;;;;;5095672;28;19938;-78
2021/07/28 07:32:26;;;;;;;;;;;15.90;99.90;;;;;;5095498;28;19934;-78
2021/07/28 07:34:53;;;;;;;;;;;15.90;99.90;;;;;;5095422;28;19934;-78
2021/07/28 07:37:19;;;;;;;;;;;15.90;99.90;;;;;;5095676;28;19965;-78
2021/07/28 07:39:46;;;;;;;;;;;15.90;99.90;;;;;;5095626;28;20299;-78
2021/07/28 07:42:14;;;;;;;;;;;15.80;99.90;;;;;;5095376;28;20353;-78
2021/07/28 07:44:43;;;;;;;;;;;15.80;99.90;;;;;;5095515;28;19935;-77
2021/07/28 07:47:10;;;;;;;;;;;15.90;99.90;;;;;;5095227;28;20311;-78
2021/07/28 07:49:37;;;;;;;;;;;15.80;99.90;;;;;;5095537;28;19924;-78
2021/07/28 07:52:04;;;;;;;;;;;15.80;99.90;;;;;;5095423;28;20252;-78
2021/07/28 07:54:31;;;;;;;;;;;16.10;99.90;;;;;;5095306;28;20352;-78
2021/07/28 07:56:57;;;;;;;;;;;16.30;99.90;;;;;;5095293;28;19924;-77
2021/07/28 07:59:26;;;;;;;;;;;16.60;99.90;;;;;;5095380;28;19938;-77
2021/07/28 08:01:53;;;;;;;;;;;17.40;99.90;;;;;;5095298;28;19934;-77
2021/07/28 08:04:23;;;;;;;;;;;18.10;99.90;;;;;;5095185;28;19942;-77
2021/07/28 08:06:50;;;;;;;;;;;19.10;99.90;;;;;;5095144;28;19979;-77
2021/07/28 08:09:17;;;;;;;3.40;1.58;;;20.50;99.90;;;;;;5094492;28;20419;-77
2021/07/28 08:11:44;;;;;;;2.78;1.30;;;22.10;99.90;;;;;;5094693;28;20054;-77
2021/07/28 08:14:11;;;;;;;2.92;1.40;;;22.60;99.90;;;;;;5094706;28;20050;-77
2021/07/28 08:16:39;;;;;;;;;;;22.20;99.90;;;;;;5094953;28;20048;-77
2021/07/28 08:19:07;;;;;;;;;;;21.70;99.90;;;;;;5095142;28;19939;-78
2021/07/28 08:21:34;;;;;;;;;;;21.00;99.90;;;;;;5098893;28;19924;-77
2021/07/28 08:24:01;;;;;;;;;;;20.50;99.90;;;;;;5099245;28;19931;-77
2021/07/28 08:26:28;;;;;;;;;;;20.20;99.90;;;;;;5099104;28;19926;-77
2021/07/28 08:28:54;;;;;;;;;;;19.90;99.90;;;;;;5099071;28;19928;-77
2021/07/28 08:31:21;;;;;;;;;;;19.80;99.90;;;;;;5098874;28;20260;-77
2021/07/28 08:33:50;;;;;;;;;;;19.70;99.90;;;;;;5098792;28;20333;-77
2021/07/28 08:36:16;;;;;;;;;;;19.50;99.90;;;;;;5098790;28;19927;-77
2021/07/28 08:38:43;;;;;;;;;;;19.20;99.90;;;;;;5098886;28;19924;-77
2021/07/28 08:41:10;;;;;;;;;;;18.90;99.90;;;;;;5098769;28;19924;-77
2021/07/28 08:43:37;;;;;;;;;;;18.60;99.90;;;;;;5098600;28;19928;-77
2021/07/28 08:46:04;;;;;;;;;;;18.50;99.90;;;;;;5098678;28;20334;-77
2021/07/28 08:48:31;;;;;;;;;;;18.40;99.90;;;;;;5098916;28;19962;-77
2021/07/28 08:51:00;;;;;;;;;;;18.30;99.90;;;;;;5098575;28;20276;-77
2021/07/28 08:53:27;;;;;;;;;;;18.20;99.90;;;;;;5098783;28;19950;-77
2021/07/28 08:55:53;;;;;;;;;;;18.30;99.90;;;;;;5098457;28;19924;-77
2021/07/28 08:58:22;;;;;;;;;;;18.20;99.90;;;;;;5098393;28;19924;-77
2021/07/28 09:00:49;;;;;;;;;;;18.20;99.90;;;;;;5098289;28;19934;-77
2021/07/28 09:03:15;;;;;;;;;;;18.40;99.90;;;;;;5098611;28;19935;-77
2021/07/28 09:05:43;;;;;;;;;;;18.40;99.90;;;;;;5098464;28;19925;-77
2021/07/28 09:08:23;;;;;;;;;;;18.50;99.90;;;;;;5098232;28;19924;-77
2021/07/28 09:10:51;;;;;;;;;;;18.60;99.90;;;;;;5098252;28;20307;-77
2021/07/28 09:13:25;;;;;;;;;;;18.50;99.90;;;;;;5098098;28;19924;-77
2021/07/28 09:15:52;;;;;;;;;;;18.40;99.90;;;;;;5098126;28;19924;-77
2021/07/28 09:18:33;;;;;;;3.37;2.07;;;18.30;99.90;;;;;;5097160;28;20591;-77
2021/07/28 09:21:00;;;;;;;2.45;1.20;;;18.30;99.90;;;;;;5097778;28;20127;-77
2021/07/28 09:23:36;;;;;;;2.83;1.63;;;18.30;99.90;;;;;;5097584;28;20054;-77
2021/07/28 09:26:05;;;;;;;2.60;1.42;;;18.30;99.90;;;;;;5097643;28;20058;-77
2021/07/28 09:28:32;;;;;;;;;;;18.40;99.90;;;;;;5097829;28;20051;-77
2021/07/28 09:30:59;;;;;;;;;;;18.50;99.90;;;;;;5097528;28;19920;-77
2021/07/28 09:33:26;;;;;;;;;;;18.50;99.90;;;;;;5097765;28;20252;-77
2021/07/28 09:36:01;;;;;;;;;;;18.50;99.90;;;;;;5097695;28;19920;-77
2021/07/28 09:38:30;;;;;;;;;;;18.60;99.90;;;;;;5097875;28;19946;-77
2021/07/28 09:41:12;;;;;;;;;;;18.60;99.90;;;;;;5097523;28;20287;-77
2021/07/28 09:43:43;;;;;;;;;;;18.60;99.90;;;;;;5097512;28;20336;-77
2021/07/28 09:46:16;;;;;;;;;;;18.60;99.90;;;;;;5097681;28;19919;-77
2021/07/28 09:48:43;;;;;;;;;;;18.60;99.90;;;;;;5097715;28;19920;-77
2021/07/28 09:51:11;;;;;;;;;;;18.80;99.90;;;;;;5097476;28;20260;-77
2021/07/28 09:53:38;;;;;;;;;;;18.90;99.90;;;;;;5097377;28;19924;-78
2021/07/28 09:56:05;;;;;;;;;;;19.10;99.90;;;;;;5097478;28;19927;-77
2021/07/28 09:58:35;;;;;;;;;;;19.20;99.90;;;;;;5097363;28;19920;-78
2021/07/28 10:01:02;;;;;;;;;;;19.40;99.90;;;;;;5097090;28;20344;-78
2021/07/28 10:03:29;;;;;;;;;;;19.40;99.90;;;;;;5097440;28;19920;-78
2021/07/28 10:05:56;;;;;;;;;;;19.30;99.90;;;;;;5097157;28;19920;-77
2021/07/28 10:08:23;;;;;;;;;;;19.10;99.90;;;;;;5097098;28;19930;-77
2021/07/28 10:10:50;;;;;;;;;;;18.90;99.90;;;;;;5097164;28;19920;-77
2021/07/28 10:13:17;;;;;;;;;;;18.80;99.90;;;;;;5097043;28;19920;-77
2021/07/28 10:15:45;;;;;;;;;;;18.80;99.90;;;;;;5096909;28;19942;-78
2021/07/28 10:18:12;;;;;;;;;;;18.70;99.90;;;;;;5096820;28;19920;-78
2021/07/28 10:20:39;;;;;;;;;;;18.60;99.90;;;;;;5096683;28;19934;-77
2021/07/28 10:23:05;;;;;;;;;;;18.50;99.90;;;;;;5096834;28;19930;-78
2021/07/28 10:25:32;;;;;;;;;;;18.50;99.90;;;;;;5096831;28;19920;-78
2021/07/28 10:27:59;;;;;;;;;;;18.50;99.90;;;;;;5096791;28;19920;-78
2021/07/28 10:30:26;;;;;;;;;;;18.60;99.90;;;;;;5096574;28;20260;-77
2021/07/28 10:32:54;;;;;;;;;;;18.60;99.90;;;;;;5096717;28;19920;-77
2021/07/28 10:35:23;;;;;;;;;;;18.60;99.90;;;;;;5096697;28;19961;-77
2021/07/28 10:37:50;;;;;;;;;;;18.60;99.90;;;;;;5096499;28;19920;-77
2021/07/28 10:40:32;;;;;;;;;;;18.60;99.90;;;;;;5096390;28;19926;-77
2021/07/28 10:43:02;;;;;;;;;;;18.50;99.90;;;;;;5095574;28;19930;-77
2021/07/28 10:45:38;;;;;;;;;;;18.40;99.90;;;;;;5096582;28;19924;-77
2021/07/28 10:48:07;;;;;;;;;;;18.30;99.90;;;;;;5096471;28;19919;-77
2021/07/28 10:50:43;;;;;;;;;;;18.10;99.90;;;;;;5096259;28;19920;-77
2021/07/28 10:53:10;;;;;;;;;;;18.10;99.90;;;;;;5096167;28;19920;-77
2021/07/28 10:55:38;;;;;;;;;;;18.20;99.90;;;;;;5096504;28;19920;-77
2021/07/28 10:58:19;;;;;;;;;;;18.30;99.90;;;;;;5096060;28;19927;-77
2021/07/28 11:00:47;;;;;;;;;;;18.30;99.90;;;;;;5096319;28;19919;-78
2021/07/28 11:03:17;;;;;;;;;;;18.30;99.90;;;;;;5095607;28;20318;-78
2021/07/28 11:05:45;;;;;;;;;;;18.30;99.90;;;;;;5095440;28;20341;-78
2021/07/28 11:08:15;;;;;;;;;;;18.20;99.90;;;;;;5095230;28;19985;-78
2021/07/28 11:10:42;;;;;;;;;;;18.10;99.90;;;;;;5096044;28;19984;-77
2021/07/28 11:13:09;;;;;;;;;;;18.00;99.90;;;;;;5095985;28;19985;-78
2021/07/28 11:15:36;;;;;;;;;;;17.90;99.90;;;;;;5095966;28;19931;-77
2021/07/28 11:18:03;;;;;;;;;;;17.90;99.90;;;;;;5095914;28;20255;-78
2021/07/28 11:20:32;;;;;;;;;;;17.80;99.90;;;;;;5095806;28;19920;-77
2021/07/28 11:23:14;;;;;;;;;;;17.80;99.90;;;;;;5095584;28;20026;-77
2021/07/28 11:25:41;;;;;;;;;;;17.80;99.90;;;;;;5095905;28;19930;-77
2021/07/28 11:28:08;;;;;;;;;;;17.90;99.90;;;;;;5095790;28;20088;-77
2021/07/28 11:30:35;;;;;;;;;;;17.90;99.90;;;;;;5095802;28;19926;-77
2021/07/28 11:33:12;;;;;;;;;;;17.90;99.90;;;;;;5095510;28;19920;-77
2021/07/28 11:35:42;;;;;;;;;;;17.90;99.90;;;;;;5095817;28;19934;-77
2021/07/28 11:38:15;;;;;;;;;;;17.80;99.90;;;;;;5092248;28;19928;-77
2021/07/28 11:40:42;;;;;;;;;;;17.50;99.90;;;;;;5073064;28;20342;-77
2021/07/28 11:43:20;;;;;;;;;;;17.20;99.90;;;;;;5075232;28;20319;-77
2021/07/28 11:45:47;;;;;;;;;;;17.00;99.90;;;;;;5075303;28;19921;-76
2021/07/28 11:48:29;;;;;;;;;;;16.90;99.90;;;;;;5075396;28;19920;-77
2021/07/28 11:50:58;;;;;;;;;;;16.70;99.90;;;;;;5075253;28;19920;-77
2021/07/28 11:53:25;;;;;;;;;;;16.60;99.90;;;;;;5074846;28;19934;-77
2021/07/28 11:55:52;;;;;;;;;;;16.40;99.90;;;;;;5074916;28;19921;-77
2021/07/28 11:58:19;;;;;;;;;;;16.30;99.90;;;;;;5074971;28;19927;-77
2021/07/28 12:00:48;;;;;;;;;;;16.20;99.90;;;;;;5075023;28;20241;-76
2021/07/28 12:03:21;;;;;;;;;;;16.10;99.90;;;;;;5074918;28;19985;-77
2021/07/28 12:05:58;;;;;;;;;;;16.00;99.90;;;;;;5075119;28;19921;-76
2021/07/28 12:08:31;;;;;;;;;;;15.70;99.90;;;;;;5074761;28;19924;-79
2021/07/28 12:11:01;;;;;;;;;;;15.50;99.90;;;;;;5074982;28;20352;-79
2021/07/28 12:13:29;;;;;;;;;;;15.30;99.90;;;;;;5074476;28;20403;-79
2021/07/28 12:16:02;;;;;;;;;;;15.00;99.90;;;;;;5074541;28;19920;-78
2021/07/28 12:18:39;;;;;;;;;;;14.90;99.90;;;;;;5075008;28;19924;-79
2021/07/28 12:21:07;;;;;;;;;;;14.80;99.90;;;;;;5074908;28;19920;-80
2021/07/28 12:23:34;;;;;;;;;;;14.70;99.90;;;;;;5074901;28;19964;-79
2021/07/28 12:26:01;;;;;;;;;;;14.60;99.90;;;;;;5074974;28;19920;-79
2021/07/28 12:28:42;;;;;;;;;;;14.60;99.90;;;;;;5074818;28;20249;-79
2021/07/28 12:31:09;;;;;;;;;;;14.50;99.90;;;;;;5074553;28;19934;-82
2021/07/28 12:33:37;;;;;;;;;;;14.40;99.90;;;;;;5074532;28;19920;-81
2021/07/28 12:36:04;;;;;;;;;;;14.30;99.90;;;;;;5074722;28;20470;-82
2021/07/28 12:38:32;;;;;;;;;;;14.20;99.90;;;;;;5074815;28;20326;-83
2021/07/28 12:41:00;;;;;;;;;;;14.10;99.90;;;;;;5074860;28;19938;-82
2021/07/28 12:43:27;;;;;;;;;;;14.10;99.90;;;;;;5074440;28;19932;-81
2021/07/28 12:45:54;;;;;;;;;;;14.00;99.90;;;;;;5074352;28;19924;-82
2021/07/28 12:48:22;;;;;;;;;;;14.00;99.90;;;;;;5074484;28;19932;-82
2021/07/28 12:50:49;;;;;;;;;;;13.90;99.90;;;;;;5074517;28;20376;-83
2021/07/28 12:53:15;;;;;;;;;;;13.90;99.90;;;;;;5074674;28;20026;-81
2021/07/28 12:55:44;;;;;;;;;;;13.90;99.90;;;;;;5074612;28;19925;-82
2021/07/28 12:58:11;;;;;;;;;;;13.90;99.90;;;;;;5074507;28;19924;-83
2021/07/28 13:00:37;;;;;;;;;;;14.00;99.90;;;;;;5074509;28;19924;-84
2021/07/28 13:03:05;;;;;;;;;;;14.10;99.90;;;;;;5074396;28;19963;-84
2021/07/28 13:05:31;;;;;;;;;;;14.20;99.90;;;;;;5074746;28;19931;-84
2021/07/28 13:08:02;;;;;;;;;;;14.20;99.90;;;;;;5077984;28;19925;-83
2021/07/28 13:10:29;;;;;;;;;;;14.30;99.90;;;;;;5077858;28;19925;-83
2021/07/28 13:12:57;;;;;;;;;;;14.40;99.90;;;;;;5078216;28;19924;-83
2021/07/28 13:15:24;;;;;;;;;;;14.60;99.90;;;;;;5078098;28;20253;-83
2021/07/28 13:17:51;;;;;;;;;;;14.80;99.90;;;;;;5077722;28;19932;-83
2021/07/28 13:20:18;;;;;;;;;;;15.00;99.90;;;;;;5077536;28;20231;-83
2021/07/28 13:22:45;;;;;;;;;;;15.20;99.90;;;;;;5077478;28;19938;-83
2021/07/28 13:25:12;;;;;;;;;;;15.30;99.90;;;;;;5077230;28;20376;-82
2021/07/28 13:27:39;;;;;;;;;;;15.20;99.90;;;;;;5077238;28;19939;-80
2021/07/28 13:30:08;;;;;;;;;;;15.30;99.90;;;;;;5077088;28;19935;-81
2021/07/28 13:32:35;;;;;;;;;;;15.30;99.90;;;;;;5077366;28;19964;-81
2021/07/28 13:35:02;;;;;;;;;;;15.30;99.90;;;;;;5077357;28;19931;-81
2021/07/28 13:37:28;;;;;;;;;;;15.20;99.90;;;;;;5077124;28;19934;-82
2021/07/28 13:39:55;;;;;;;;;;;15.20;99.90;;;;;;5077121;28;19924;-82
2021/07/28 13:42:22;;;;;;;;;;;15.20;99.90;;;;;;5077277;28;19924;-83
2021/07/28 13:44:49;;;;;;;;;;;14.70;99.90;;;;;;5077396;28;19924;-83
2021/07/28 13:47:17;;;;;;;;;;;14.50;99.90;;;;;;5077434;28;19931;-83
2021/07/28 13:49:44;;;;;;;;;;;14.30;99.90;;;;;;5077449;28;19924;-83
2021/07/28 13:52:11;;;;;;;;;;;14.20;99.90;;;;;;5077295;28;19928;-80
2021/07/28 13:54:38;;;;;;;;;;;14.20;99.90;;;;;;5077252;28;19935;-84
2021/07/28 13:57:11;;;;;;;;;;;14.10;99.90;;;;;;5077128;28;19935;-81
2021/07/28 13:59:38;;;;;;;;;;;13.90;99.90;;;;;;5077307;28;19935;-85
2021/07/28 14:02:05;;;;;;;;;;;13.70;99.90;;;;;;5077154;28;19934;-84
2021/07/28 14:04:36;;;;;;;;;;;13.70;99.90;;;;;;5077198;28;19925;-84
2021/07/28 14:07:03;;;;;;;;;;;13.60;99.90;;;;;;5077169;28;20257;-84
2021/07/28 14:09:30;;;;;;;;;;;13.60;99.90;;;;;;5076780;28;19935;-83
2021/07/28 14:11:56;;;;;;;;;;;13.50;99.90;;;;;;5077034;28;20023;-85
2021/07/28 14:14:23;;;;;;;;;;;13.50;99.90;;;;;;5076972;28;19924;-85
2021/07/28 14:16:50;;;;;;;;;;;13.40;99.90;;;;;;5076788;28;19968;-84
2021/07/28 14:19:18;;;;;;;;;;;13.40;99.90;;;;;;5076647;28;20289;-85
2021/07/28 14:21:47;;;;;;;;;;;13.40;99.90;;;;;;5076582;28;19928;-85
2021/07/28 14:24:14;;;;;;;;;;;13.30;99.90;;;;;;5076567;28;19935;-85
2021/07/28 14:26:41;;;;;;;;;;;13.20;99.90;;;;;;5076463;28;19951;-84
2021/07/28 14:29:08;;;;;;;;;;;13.10;99.90;;;;;;5076361;28;20266;-84
2021/07/28 14:31:35;;;;;;;;;;;13.20;99.90;;;;;;5076589;28;19931;-84